sensor_id;sensor_type;location;lat;lon;timestamp;temperature;humidity
71367;DHT22;60030;52.274;8.040;2022-08-05T00:02:06;23.60;99.90
71367;DHT22;60030;52.274;8.040;2022-08-05T00:04:33;23.70;99.90
71367;DHT22;60030;52.274;8.040;2022-08-05T00:07:00;23.70;99.90
71367;DHT22;60030;52.274;8.040;2022-08-05T00:09:28;23.70;99.90
71367;DHT22;60030;52.274;8.040;2022-08-05T00:11:56;23.50;99.90
71367;DHT22;60030;52.274;8.040;2022-08-05T00:14:23;23.30;99.90
71367;DHT22;60030;52.274;8.040;2022-08-05T00:16:50;23.30;99.90
71367;DHT22;60030;52.274;8.040;2022-08-05T00:19:17;23.40;99.90
71367;DHT22;60030;52.274;8.040;2022-08-05T00:21:44;23.20;99.90
71367;DHT22;60030;52.274;8.040;2022-08-05T00:24:11;23.30;99.90
71367;DHT22;60030;52.274;8.040;2022-08-05T00:26:39;23.30;99.90
71367;DHT22;60030;52.274;8.040;2022-08-05T00:29:07;23.20;99.90
71367;DHT22;60030;52.274;8.040;2022-08-05T00:31:34;22.80;99.90
71367;DHT22;60030;52.274;8.040;2022-08-05T00:34:01;22.60;99.90
71367;DHT22;60030;52.274;8.040;2022-08-05T00:36:28;22.70;99.90
71367;DHT22;60030;52.274;8.040;2022-08-05T00:38:56;22.60;99.90
71367;DHT22;60030;52.274;8.040;2022-08-05T00:41:27;22.70;99.90
71367;DHT22;60030;52.274;8.040;2022-08-05T00:43:54;22.80;99.90
71367;DHT22;60030;52.274;8.040;2022-08-05T00:46:23;22.80;99.90
71367;DHT22;60030;52.274;8.040;2022-08-05T00:48:51;22.50;99.90
71367;DHT22;60030;52.274;8.040;2022-08-05T00:51:18;22.60;99.90
71367;DHT22;60030;52.274;8.040;2022-08-05T00:53:45;22.50;99.90
71367;DHT22;60030;52.274;8.040;2022-08-05T00:56:14;22.20;99.90
71367;DHT22;60030;52.274;8.040;2022-08-05T00:58:41;22.20;99.90
71367;DHT22;60030;52.274;8.040;2022-08-05T01:01:09;22.40;99.90
71367;DHT22;60030;52.274;8.040;2022-08-05T01:03:38;22.50;99.90
71367;DHT22;60030;52.274;8.040;2022-08-05T01:06:06;22.50;99.90
71367;DHT22;60030;52.274;8.040;2022-08-05T01:08:34;22.50;99.90
71367;DHT22;60030;52.274;8.040;2022-08-05T01:11:05;22.50;99.90
71367;DHT22;60030;52.274;8.040;2022-08-05T01:13:38;22.30;99.90
71367;DHT22;60030;52.274;8.040;2022-08-05T01:16:12;22.30;99.90
71367;DHT22;60030;52.274;8.040;2022-08-05T01:18:44;22.20;99.90
71367;DHT22;60030;52.274;8.040;2022-08-05T01:21:22;22.20;99.90
71367;DHT22;60030;52.274;8.040;2022-08-05T01:24:00;22.10;99.90
71367;DHT22;60030;52.274;8.040;2022-08-05T01:26:43;22.10;99.90
71367;DHT22;60030;52.274;8.040;2022-08-05T01:29:18;22.00;99.90
71367;DHT22;60030;52.274;8.040;2022-08-05T01:31:50;22.00;99.90
71367;DHT22;60030;52.274;8.040;2022-08-05T01:34:23;22.10;99.90
71367;DHT22;60030;52.274;8.040;2022-08-05T01:36:54;22.10;99.90
71367;DHT22;60030;52.274;8.040;2022-08-05T01:39:24;22.00;99.90
71367;DHT22;60030;52.274;8.040;2022-08-05T01:41:53;21.90;99.90
71367;DHT22;60030;52.274;8.040;2022-08-05T01:44:23;22.00;99.90
71367;DHT22;60030;52.274;8.040;2022-08-05T01:46:53;22.00;99.90
71367;DHT22;60030;52.274;8.040;2022-08-05T01:49:22;22.00;99.90
71367;DHT22;60030;52.274;8.040;2022-08-05T01:51:54;22.00;99.90
71367;DHT22;60030;52.274;8.040;2022-08-05T01:54:25;21.70;99.90
71367;DHT22;60030;52.274;8.040;2022-08-05T01:56:55;21.70;99.90
71367;DHT22;60030;52.274;8.040;2022-08-05T01:59:25;21.70;99.90
71367;DHT22;60030;52.274;8.040;2022-08-05T02:01:55;21.70;99.90
71367;DHT22;60030;52.274;8.040;2022-08-05T02:04:25;21.70;99.90
71367;DHT22;60030;52.274;8.040;2022-08-05T02:06:54;21.70;99.90
71367;DHT22;60030;52.274;8.040;2022-08-05T02:09:22;21.70;99.90
71367;DHT22;60030;52.274;8.040;2022-08-05T02:11:56;21.60;99.90
71367;DHT22;60030;52.274;8.040;2022-08-05T02:14:31;21.50;99.90
71367;DHT22;60030;52.274;8.040;2022-08-05T02:17:03;21.50;99.90
71367;DHT22;60030;52.274;8.040;2022-08-05T02:19:34;21.40;99.90
71367;DHT22;60030;52.274;8.040;2022-08-05T02:22:12;21.40;99.90
71367;DHT22;60030;52.274;8.040;2022-08-05T02:24:44;21.50;99.90
71367;DHT22;60030;52.274;8.040;2022-08-05T02:27:14;21.40;99.90
71367;DHT22;60030;52.274;8.040;2022-08-05T02:29:44;21.40;99.90
71367;DHT22;60030;52.274;8.040;2022-08-05T02:32:17;21.50;99.90
71367;DHT22;60030;52.274;8.040;2022-08-05T02:34:45;21.50;99.90
71367;DHT22;60030;52.274;8.040;2022-08-05T02:37:13;21.50;99.90
71367;DHT22;60030;52.274;8.040;2022-08-05T02:39:41;21.30;99.90
71367;DHT22;60030;52.274;8.040;2022-08-05T02:42:09;21.40;99.90
71367;DHT22;60030;52.274;8.040;2022-08-05T02:44:37;21.50;99.90
71367;DHT22;60030;52.274;8.040;2022-08-05T02:47:08;21.50;99.90
71367;DHT22;60030;52.274;8.040;2022-08-05T02:49:37;21.50;99.90
71367;DHT22;60030;52.274;8.040;2022-08-05T02:52:08;21.20;99.90
71367;DHT22;60030;52.274;8.040;2022-08-05T02:54:37;21.10;99.90
71367;DHT22;60030;52.274;8.040;2022-08-05T02:57:07;21.10;99.90
71367;DHT22;60030;52.274;8.040;2022-08-05T02:59:36;21.00;99.90
71367;DHT22;60030;52.274;8.040;2022-08-05T03:02:04;20.90;99.90
71367;DHT22;60030;52.274;8.040;2022-08-05T03:04:33;21.10;99.90
71367;DHT22;60030;52.274;8.040;2022-08-05T03:07:01;21.20;99.90
71367;DHT22;60030;52.274;8.040;2022-08-05T03:09:29;20.80;99.90
71367;DHT22;60030;52.274;8.040;2022-08-05T03:11:57;21.10;99.90
71367;DHT22;60030;52.274;8.040;2022-08-05T03:14:24;21.10;99.90
71367;DHT22;60030;52.274;8.040;2022-08-05T03:16:51;21.00;99.90
71367;DHT22;60030;52.274;8.040;2022-08-05T03:19:18;21.00;99.90
71367;DHT22;60030;52.274;8.040;2022-08-05T03:21:46;21.10;99.90
71367;DHT22;60030;52.274;8.040;2022-08-05T03:24:14;21.10;99.90
71367;DHT22;60030;52.274;8.040;2022-08-05T03:26:41;21.10;99.90
71367;DHT22;60030;52.274;8.040;2022-08-05T03:29:08;20.90;99.90
71367;DHT22;60030;52.274;8.040;2022-08-05T03:31:35;20.90;99.90
71367;DHT22;60030;52.274;8.040;2022-08-05T03:34:03;20.90;99.90
71367;DHT22;60030;52.274;8.040;2022-08-05T03:36:30;21.00;99.90
71367;DHT22;60030;52.274;8.040;2022-08-05T03:39:05;20.90;99.90
71367;DHT22;60030;52.274;8.040;2022-08-05T03:41:33;20.90;99.90
71367;DHT22;60030;52.274;8.040;2022-08-05T03:44:00;21.10;99.90
71367;DHT22;60030;52.274;8.040;2022-08-05T03:46:27;21.00;99.90
71367;DHT22;60030;52.274;8.040;2022-08-05T03:48:54;20.70;99.90
71367;DHT22;60030;52.274;8.040;2022-08-05T03:51:27;20.60;99.90
71367;DHT22;60030;52.274;8.040;2022-08-05T03:53:58;20.80;99.90
71367;DHT22;60030;52.274;8.040;2022-08-05T03:56:31;20.90;99.90
71367;DHT22;60030;52.274;8.040;2022-08-05T03:59:00;21.00;99.90
71367;DHT22;60030;52.274;8.040;2022-08-05T04:01:30;21.00;99.90
71367;DHT22;60030;52.274;8.040;2022-08-05T04:03:59;20.80;99.90
71367;DHT22;60030;52.274;8.040;2022-08-05T04:06:28;20.70;99.90
71367;DHT22;60030;52.274;8.040;2022-08-05T04:08:57;20.80;99.90
71367;DHT22;60030;52.274;8.040;2022-08-05T04:11:24;20.80;99.90
71367;DHT22;60030;52.274;8.040;2022-08-05T04:13:53;20.80;99.90
71367;DHT22;60030;52.274;8.040;2022-08-05T04:16:21;20.50;99.90
71367;DHT22;60030;52.274;8.040;2022-08-05T04:18:48;20.60;99.90
71367;DHT22;60030;52.274;8.040;2022-08-05T04:21:15;20.40;99.90
71367;DHT22;60030;52.274;8.040;2022-08-05T04:23:42;20.40;99.90
71367;DHT22;60030;52.274;8.040;2022-08-05T04:26:10;20.50;99.90
71367;DHT22;60030;52.274;8.040;2022-08-05T04:28:37;20.70;99.90
71367;DHT22;60030;52.274;8.040;2022-08-05T04:31:06;20.60;99.90
71367;DHT22;60030;52.274;8.040;2022-08-05T04:33:33;20.60;99.90
71367;DHT22;60030;52.274;8.040;2022-08-05T04:36:00;20.80;99.90
71367;DHT22;60030;52.274;8.040;2022-08-05T04:38:27;20.60;99.90
71367;DHT22;60030;52.274;8.040;2022-08-05T04:40:54;20.80;99.90
71367;DHT22;60030;52.274;8.040;2022-08-05T04:43:21;20.80;99.90
71367;DHT22;60030;52.274;8.040;2022-08-05T04:45:48;20.80;99.90
71367;DHT22;60030;52.274;8.040;2022-08-05T04:48:16;20.70;99.90
71367;DHT22;60030;52.274;8.040;2022-08-05T04:50:45;20.50;99.90
71367;DHT22;60030;52.274;8.040;2022-08-05T04:53:13;20.30;99.90
71367;DHT22;60030;52.274;8.040;2022-08-05T04:55:42;20.20;99.90
71367;DHT22;60030;52.274;8.040;2022-08-05T04:58:10;20.40;99.90
71367;DHT22;60030;52.274;8.040;2022-08-05T05:00:38;20.40;99.90
71367;DHT22;60030;52.274;8.040;2022-08-05T05:03:07;20.30;99.90
71367;DHT22;60030;52.274;8.040;2022-08-05T05:05:36;20.40;99.90
71367;DHT22;60030;52.274;8.040;2022-08-05T05:08:05;20.40;99.90
71367;DHT22;60030;52.274;8.040;2022-08-05T05:10:37;20.50;99.90
71367;DHT22;60030;52.274;8.040;2022-08-05T05:13:07;20.30;99.90
71367;DHT22;60030;52.274;8.040;2022-08-05T05:15:34;20.20;99.90
71367;DHT22;60030;52.274;8.040;2022-08-05T05:18:01;20.40;99.90
71367;DHT22;60030;52.274;8.040;2022-08-05T05:20:29;20.30;99.90
71367;DHT22;60030;52.274;8.040;2022-08-05T05:22:58;20.40;99.90
71367;DHT22;60030;52.274;8.040;2022-08-05T05:25:26;20.50;99.90
71367;DHT22;60030;52.274;8.040;2022-08-05T05:27:53;20.40;99.90
71367;DHT22;60030;52.274;8.040;2022-08-05T05:30:20;20.40;99.90
71367;DHT22;60030;52.274;8.040;2022-08-05T05:32:48;20.40;99.90
71367;DHT22;60030;52.274;8.040;2022-08-05T05:35:15;20.40;99.90
71367;DHT22;60030;52.274;8.040;2022-08-05T05:37:46;20.50;99.90
71367;DHT22;60030;52.274;8.040;2022-08-05T05:40:16;20.60;99.90
71367;DHT22;60030;52.274;8.040;2022-08-05T05:42:43;20.60;99.90
71367;DHT22;60030;52.274;8.040;2022-08-05T05:45:10;20.50;99.90
71367;DHT22;60030;52.274;8.040;2022-08-05T05:47:37;20.60;99.90
71367;DHT22;60030;52.274;8.040;2022-08-05T05:50:06;20.50;99.90
71367;DHT22;60030;52.274;8.040;2022-08-05T05:52:33;20.50;99.90
71367;DHT22;60030;52.274;8.040;2022-08-05T05:55:01;20.60;99.90
71367;DHT22;60030;52.274;8.040;2022-08-05T05:57:30;20.60;99.90
71367;DHT22;60030;52.274;8.040;2022-08-05T05:59:57;20.40;99.90
71367;DHT22;60030;52.274;8.040;2022-08-05T06:02:24;20.50;99.90
71367;DHT22;60030;52.274;8.040;2022-08-05T06:04:51;20.60;99.90
71367;DHT22;60030;52.274;8.040;2022-08-05T06:07:18;20.50;99.90
71367;DHT22;60030;52.274;8.040;2022-08-05T06:09:45;20.50;99.90
71367;DHT22;60030;52.274;8.040;2022-08-05T06:12:12;20.60;99.90
71367;DHT22;60030;52.274;8.040;2022-08-05T06:14:41;20.60;99.90
71367;DHT22;60030;52.274;8.040;2022-08-05T06:17:09;20.60;99.90
71367;DHT22;60030;52.274;8.040;2022-08-05T06:19:37;20.60;99.90
71367;DHT22;60030;52.274;8.040;2022-08-05T06:22:06;20.50;99.90
71367;DHT22;60030;52.274;8.040;2022-08-05T06:24:34;20.50;99.90
71367;DHT22;60030;52.274;8.040;2022-08-05T06:27:01;20.60;99.90
71367;DHT22;60030;52.274;8.040;2022-08-05T06:29:28;20.60;99.90
71367;DHT22;60030;52.274;8.040;2022-08-05T06:31:57;20.40;99.90
71367;DHT22;60030;52.274;8.040;2022-08-05T06:34:24;20.40;99.90
71367;DHT22;60030;52.274;8.040;2022-08-05T06:36:51;20.60;99.90
71367;DHT22;60030;52.274;8.040;2022-08-05T06:39:18;20.60;99.90
71367;DHT22;60030;52.274;8.040;2022-08-05T06:41:45;20.60;99.90
71367;DHT22;60030;52.274;8.040;2022-08-05T06:44:12;20.60;99.90
71367;DHT22;60030;52.274;8.040;2022-08-05T06:46:39;20.40;99.90
71367;DHT22;60030;52.274;8.040;2022-08-05T06:49:08;20.50;99.90
71367;DHT22;60030;52.274;8.040;2022-08-05T06:51:35;20.50;99.90
71367;DHT22;60030;52.274;8.040;2022-08-05T06:54:03;20.30;99.90
71367;DHT22;60030;52.274;8.040;2022-08-05T06:56:31;20.00;99.90
71367;DHT22;60030;52.274;8.040;2022-08-05T06:58:58;20.00;99.90
71367;DHT22;60030;52.274;8.040;2022-08-05T07:01:25;20.20;99.90
71367;DHT22;60030;52.274;8.040;2022-08-05T07:03:52;20.10;99.90
71367;DHT22;60030;52.274;8.040;2022-08-05T07:06:20;20.10;99.90
71367;DHT22;60030;52.274;8.040;2022-08-05T07:08:49;20.00;99.90
71367;DHT22;60030;52.274;8.040;2022-08-05T07:11:16;20.00;99.90
71367;DHT22;60030;52.274;8.040;2022-08-05T07:13:43;20.10;99.90
71367;DHT22;60030;52.274;8.040;2022-08-05T07:16:29;20.10;99.90
71367;DHT22;60030;52.274;8.040;2022-08-05T07:19:13;20.30;99.90
71367;DHT22;60030;52.274;8.040;2022-08-05T07:21:43;20.40;99.90
71367;DHT22;60030;52.274;8.040;2022-08-05T07:24:10;20.30;99.90
71367;DHT22;60030;52.274;8.040;2022-08-05T07:26:38;20.40;99.90
71367;DHT22;60030;52.274;8.040;2022-08-05T07:29:05;20.40;99.90
71367;DHT22;60030;52.274;8.040;2022-08-05T07:31:32;20.40;99.90
71367;DHT22;60030;52.274;8.040;2022-08-05T07:33:59;20.30;99.90
71367;DHT22;60030;52.274;8.040;2022-08-05T07:36:27;20.20;99.90
71367;DHT22;60030;52.274;8.040;2022-08-05T07:38:56;20.30;99.90
71367;DHT22;60030;52.274;8.040;2022-08-05T07:41:23;20.20;99.90
71367;DHT22;60030;52.274;8.040;2022-08-05T07:43:50;20.20;99.90
71367;DHT22;60030;52.274;8.040;2022-08-05T07:46:18;20.10;99.90
71367;DHT22;60030;52.274;8.040;2022-08-05T07:48:45;20.10;99.90
71367;DHT22;60030;52.274;8.040;2022-08-05T07:51:12;20.00;99.90
71367;DHT22;60030;52.274;8.040;2022-08-05T07:53:40;20.00;99.90
71367;DHT22;60030;52.274;8.040;2022-08-05T07:56:09;20.10;99.90
71367;DHT22;60030;52.274;8.040;2022-08-05T07:58:36;20.00;99.90
71367;DHT22;60030;52.274;8.040;2022-08-05T08:01:03;20.10;99.90
71367;DHT22;60030;52.274;8.040;2022-08-05T08:03:30;20.20;99.90
71367;DHT22;60030;52.274;8.040;2022-08-05T08:05:57;20.10;99.90
71367;DHT22;60030;52.274;8.040;2022-08-05T08:08:24;20.10;99.90
71367;DHT22;60030;52.274;8.040;2022-08-05T08:10:51;20.10;99.90
71367;DHT22;60030;52.274;8.040;2022-08-05T08:13:21;19.90;99.90
71367;DHT22;60030;52.274;8.040;2022-08-05T08:15:48;19.90;99.90
71367;DHT22;60030;52.274;8.040;2022-08-05T08:18:15;19.90;99.90
71367;DHT22;60030;52.274;8.040;2022-08-05T08:20:43;19.90;99.90
71367;DHT22;60030;52.274;8.040;2022-08-05T08:23:10;19.80;99.90
71367;DHT22;60030;52.274;8.040;2022-08-05T08:25:37;19.80;99.90
71367;DHT22;60030;52.274;8.040;2022-08-05T08:28:04;19.80;99.90
71367;DHT22;60030;52.274;8.040;2022-08-05T08:30:32;19.60;99.90
71367;DHT22;60030;52.274;8.040;2022-08-05T08:33:00;19.80;99.90
71367;DHT22;60030;52.274;8.040;2022-08-05T08:35:27;19.80;99.90
71367;DHT22;60030;52.274;8.040;2022-08-05T08:37:54;19.80;99.90
71367;DHT22;60030;52.274;8.040;2022-08-05T08:40:21;20.10;99.90
71367;DHT22;60030;52.274;8.040;2022-08-05T08:42:50;20.00;99.90
71367;DHT22;60030;52.274;8.040;2022-08-05T08:45:20;20.20;99.90
71367;DHT22;60030;52.274;8.040;2022-08-05T08:47:49;20.10;99.90
71367;DHT22;60030;52.274;8.040;2022-08-05T08:50:18;20.10;99.90
71367;DHT22;60030;52.274;8.040;2022-08-05T08:52:49;20.10;99.90
71367;DHT22;60030;52.274;8.040;2022-08-05T08:55:16;20.10;99.90
71367;DHT22;60030;52.274;8.040;2022-08-05T08:57:45;20.20;99.90
71367;DHT22;60030;52.274;8.040;2022-08-05T09:00:13;20.00;99.90
71367;DHT22;60030;52.274;8.040;2022-08-05T09:02:41;20.20;99.90
71367;DHT22;60030;52.274;8.040;2022-08-05T09:05:11;20.10;99.90
71367;DHT22;60030;52.274;8.040;2022-08-05T09:07:39;20.00;99.90
71367;DHT22;60030;52.274;8.040;2022-08-05T09:10:06;20.00;99.90
71367;DHT22;60030;52.274;8.040;2022-08-05T09:12:34;20.10;99.90
71367;DHT22;60030;52.274;8.040;2022-08-05T09:15:02;20.30;99.90
71367;DHT22;60030;52.274;8.040;2022-08-05T09:17:30;20.20;99.90
71367;DHT22;60030;52.274;8.040;2022-08-05T09:19:58;20.20;99.90
71367;DHT22;60030;52.274;8.040;2022-08-05T09:22:26;20.30;99.90
71367;DHT22;60030;52.274;8.040;2022-08-05T09:24:57;20.10;99.90
71367;DHT22;60030;52.274;8.040;2022-08-05T09:27:30;20.20;99.90
71367;DHT22;60030;52.274;8.040;2022-08-05T09:29:58;20.20;99.90
71367;DHT22;60030;52.274;8.040;2022-08-05T09:32:33;20.00;99.90
71367;DHT22;60030;52.274;8.040;2022-08-05T09:35:08;20.20;99.90
71367;DHT22;60030;52.274;8.040;2022-08-05T09:37:48;20.40;99.90
71367;DHT22;60030;52.274;8.040;2022-08-05T09:40:29;20.40;99.90
71367;DHT22;60030;52.274;8.040;2022-08-05T09:42:57;20.10;99.90
71367;DHT22;60030;52.274;8.040;2022-08-05T09:45:34;20.30;99.90
71367;DHT22;60030;52.274;8.040;2022-08-05T09:48:22;20.20;99.90
71367;DHT22;60030;52.274;8.040;2022-08-05T09:50:53;20.10;99.90
71367;DHT22;60030;52.274;8.040;2022-08-05T09:53:22;20.30;99.90
71367;DHT22;60030;52.274;8.040;2022-08-05T09:55:54;20.50;99.90
71367;DHT22;60030;52.274;8.040;2022-08-05T09:58:22;20.40;99.90
71367;DHT22;60030;52.274;8.040;2022-08-05T10:01:07;20.70;99.90
71367;DHT22;60030;52.274;8.040;2022-08-05T10:03:37;20.80;99.90
71367;DHT22;60030;52.274;8.040;2022-08-05T10:06:07;20.80;99.90
71367;DHT22;60030;52.274;8.040;2022-08-05T10:08:36;20.90;99.90
71367;DHT22;60030;52.274;8.040;2022-08-05T10:11:12;20.90;99.90
71367;DHT22;60030;52.274;8.040;2022-08-05T10:13:40;20.80;99.90
71367;DHT22;60030;52.274;8.040;2022-08-05T10:16:27;21.00;99.90
71367;DHT22;60030;52.274;8.040;2022-08-05T10:18:54;21.00;99.90
71367;DHT22;60030;52.274;8.040;2022-08-05T10:21:21;21.00;99.90
71367;DHT22;60030;52.274;8.040;2022-08-05T10:23:50;20.90;99.90
71367;DHT22;60030;52.274;8.040;2022-08-05T10:26:17;20.90;99.90
71367;DHT22;60030;52.274;8.040;2022-08-05T10:28:45;20.90;99.90
71367;DHT22;60030;52.274;8.040;2022-08-05T10:31:14;20.90;99.90
71367;DHT22;60030;52.274;8.040;2022-08-05T10:33:42;21.00;99.90
71367;DHT22;60030;52.274;8.040;2022-08-05T10:36:09;21.00;99.90
71367;DHT22;60030;52.274;8.040;2022-08-05T10:38:36;20.90;99.90
71367;DHT22;60030;52.274;8.040;2022-08-05T10:41:11;20.80;99.90
71367;DHT22;60030;52.274;8.040;2022-08-05T10:43:47;20.90;99.90
71367;DHT22;60030;52.274;8.040;2022-08-05T10:46:18;21.00;99.90
71367;DHT22;60030;52.274;8.040;2022-08-05T10:48:47;21.10;99.90
71367;DHT22;60030;52.274;8.040;2022-08-05T10:51:15;21.40;99.90
71367;DHT22;60030;52.274;8.040;2022-08-05T10:53:47;21.70;99.90
71367;DHT22;60030;52.274;8.040;2022-08-05T10:56:20;21.80;99.90
71367;DHT22;60030;52.274;8.040;2022-08-05T10:58:59;21.50;99.90
71367;DHT22;60030;52.274;8.040;2022-08-05T11:01:30;21.50;99.90
71367;DHT22;60030;52.274;8.040;2022-08-05T11:04:03;21.70;99.90
71367;DHT22;60030;52.274;8.040;2022-08-05T11:06:32;21.80;99.90
71367;DHT22;60030;52.274;8.040;2022-08-05T11:09:20;21.90;99.90
71367;DHT22;60030;52.274;8.040;2022-08-05T11:11:49;21.80;99.90
71367;DHT22;60030;52.274;8.040;2022-08-05T11:14:24;21.90;99.90
71367;DHT22;60030;52.274;8.040;2022-08-05T11:17:29;22.10;99.90
71367;DHT22;60030;52.274;8.040;2022-08-05T11:19:57;22.30;99.90
71367;DHT22;60030;52.274;8.040;2022-08-05T11:22:42;22.30;99.90
71367;DHT22;60030;52.274;8.040;2022-08-05T11:25:30;22.30;99.90
71367;DHT22;60030;52.274;8.040;2022-08-05T11:31:19;22.80;99.90
71367;DHT22;60030;52.274;8.040;2022-08-05T11:33:54;23.00;99.90
71367;DHT22;60030;52.274;8.040;2022-08-05T11:36:41;23.20;99.90
71367;DHT22;60030;52.274;8.040;2022-08-05T11:39:13;23.00;99.90
71367;DHT22;60030;52.274;8.040;2022-08-05T11:41:41;23.10;99.90
71367;DHT22;60030;52.274;8.040;2022-08-05T11:44:16;22.90;99.90
71367;DHT22;60030;52.274;8.040;2022-08-05T11:46:48;22.90;99.90
71367;DHT22;60030;52.274;8.040;2022-08-05T11:49:17;22.80;99.90
71367;DHT22;60030;52.274;8.040;2022-08-05T11:51:46;22.80;99.90
71367;DHT22;60030;52.274;8.040;2022-08-05T11:54:19;22.90;99.90
71367;DHT22;60030;52.274;8.040;2022-08-05T11:56:48;23.10;99.90
71367;DHT22;60030;52.274;8.040;2022-08-05T11:59:18;23.30;99.90
71367;DHT22;60030;52.274;8.040;2022-08-05T12:01:57;23.60;99.90
71367;DHT22;60030;52.274;8.040;2022-08-05T12:04:26;23.60;99.90
71367;DHT22;60030;52.274;8.040;2022-08-05T12:06:54;24.00;99.90
71367;DHT22;60030;52.274;8.040;2022-08-05T12:09:24;23.90;99.90
71367;DHT22;60030;52.274;8.040;2022-08-05T12:11:52;24.00;99.90
71367;DHT22;60030;52.274;8.040;2022-08-05T12:14:20;24.40;99.90
71367;DHT22;60030;52.274;8.040;2022-08-05T12:16:47;24.50;99.90
71367;DHT22;60030;52.274;8.040;2022-08-05T12:19:16;24.60;99.90
71367;DHT22;60030;52.274;8.040;2022-08-05T12:21:46;25.00;99.90
71367;DHT22;60030;52.274;8.040;2022-08-05T12:24:15;25.10;99.90
71367;DHT22;60030;52.274;8.040;2022-08-05T12:26:44;25.40;99.90
71367;DHT22;60030;52.274;8.040;2022-08-05T12:29:13;25.00;99.90
71367;DHT22;60030;52.274;8.040;2022-08-05T12:31:44;24.70;99.90
71367;DHT22;60030;52.274;8.040;2022-08-05T12:34:12;24.50;99.90
71367;DHT22;60030;52.274;8.040;2022-08-05T12:36:41;24.50;99.90
71367;DHT22;60030;52.274;8.040;2022-08-05T12:39:08;24.70;99.90
71367;DHT22;60030;52.274;8.040;2022-08-05T12:41:38;24.50;99.90
71367;DHT22;60030;52.274;8.040;2022-08-05T12:44:07;24.20;99.90
71367;DHT22;60030;52.274;8.040;2022-08-05T12:46:36;23.70;99.90
71367;DHT22;60030;52.274;8.040;2022-08-05T12:49:05;23.40;99.90
71367;DHT22;60030;52.274;8.040;2022-08-05T12:51:44;23.20;99.90
71367;DHT22;60030;52.274;8.040;2022-08-05T12:54:18;23.00;99.90
71367;DHT22;60030;52.274;8.040;2022-08-05T12:56:47;22.90;99.90
71367;DHT22;60030;52.274;8.040;2022-08-05T12:59:16;22.50;99.90
71367;DHT22;60030;52.274;8.040;2022-08-05T13:01:46;22.90;99.90
71367;DHT22;60030;52.274;8.040;2022-08-05T13:04:18;23.10;99.90
71367;DHT22;60030;52.274;8.040;2022-08-05T13:06:47;23.20;99.90
71367;DHT22;60030;52.274;8.040;2022-08-05T13:09:14;23.40;99.90
71367;DHT22;60030;52.274;8.040;2022-08-05T13:11:42;23.50;99.90
71367;DHT22;60030;52.274;8.040;2022-08-05T13:14:21;23.60;99.90
71367;DHT22;60030;52.274;8.040;2022-08-05T13:16:51;24.00;99.90
71367;DHT22;60030;52.274;8.040;2022-08-05T13:19:21;25.20;99.90
71367;DHT22;60030;52.274;8.040;2022-08-05T13:21:49;27.30;99.90
71367;DHT22;60030;52.274;8.040;2022-08-05T13:24:18;27.10;97.60
71367;DHT22;60030;52.274;8.040;2022-08-05T13:26:46;27.00;98.70
71367;DHT22;60030;52.274;8.040;2022-08-05T13:29:14;28.10;96.10
71367;DHT22;60030;52.274;8.040;2022-08-05T13:31:42;28.10;95.00
71367;DHT22;60030;52.274;8.040;2022-08-05T13:34:09;28.90;92.60
71367;DHT22;60030;52.274;8.040;2022-08-05T13:36:36;30.00;90.80
71367;DHT22;60030;52.274;8.040;2022-08-05T13:39:06;28.40;91.50
71367;DHT22;60030;52.274;8.040;2022-08-05T13:41:33;26.40;94.20
71367;DHT22;60030;52.274;8.040;2022-08-05T13:44:01;25.50;95.40
71367;DHT22;60030;52.274;8.040;2022-08-05T13:46:28;24.90;97.30
71367;DHT22;60030;52.274;8.040;2022-08-05T13:48:55;24.50;97.80
71367;DHT22;60030;52.274;8.040;2022-08-05T13:51:28;24.30;98.20
71367;DHT22;60030;52.274;8.040;2022-08-05T13:53:55;24.10;99.20
71367;DHT22;60030;52.274;8.040;2022-08-05T13:56:24;23.90;99.80
71367;DHT22;60030;52.274;8.040;2022-08-05T13:58:51;24.20;98.30
71367;DHT22;60030;52.274;8.040;2022-08-05T14:01:18;24.60;97.80
71367;DHT22;60030;52.274;8.040;2022-08-05T14:03:45;24.90;97.60
71367;DHT22;60030;52.274;8.040;2022-08-05T14:06:33;25.00;95.70
71367;DHT22;60030;52.274;8.040;2022-08-05T14:08:59;25.20;95.30
71367;DHT22;60030;52.274;8.040;2022-08-05T14:11:28;25.70;94.60
71367;DHT22;60030;52.274;8.040;2022-08-05T14:13:55;26.20;93.70
71367;DHT22;60030;52.274;8.040;2022-08-05T14:16:22;26.70;91.30
71367;DHT22;60030;52.274;8.040;2022-08-05T14:18:50;26.60;91.00
71367;DHT22;60030;52.274;8.040;2022-08-05T14:21:17;25.70;91.90
71367;DHT22;60030;52.274;8.040;2022-08-05T14:23:44;25.10;90.60
71367;DHT22;60030;52.274;8.040;2022-08-05T14:26:11;25.10;90.00
71367;DHT22;60030;52.274;8.040;2022-08-05T14:28:39;25.30;83.00
71367;DHT22;60030;52.274;8.040;2022-08-05T14:31:07;26.80;80.20
71367;DHT22;60030;52.274;8.040;2022-08-05T14:33:34;27.30;72.30
71367;DHT22;60030;52.274;8.040;2022-08-05T14:36:02;27.60;67.40
71367;DHT22;60030;52.274;8.040;2022-08-05T14:38:29;27.70;62.70
71367;DHT22;60030;52.274;8.040;2022-08-05T14:40:56;27.60;63.60
71367;DHT22;60030;52.274;8.040;2022-08-05T14:43:23;28.00;59.70
71367;DHT22;60030;52.274;8.040;2022-08-05T14:45:52;27.70;60.60
71367;DHT22;60030;52.274;8.040;2022-08-05T14:48:19;27.30;58.50
71367;DHT22;60030;52.274;8.040;2022-08-05T14:50:46;26.50;59.70
71367;DHT22;60030;52.274;8.040;2022-08-05T14:53:13;26.60;59.90
71367;DHT22;60030;52.274;8.040;2022-08-05T14:55:40;26.20;58.10
71367;DHT22;60030;52.274;8.040;2022-08-05T14:58:07;26.30;57.70
71367;DHT22;60030;52.274;8.040;2022-08-05T15:00:35;26.10;57.50
71367;DHT22;60030;52.274;8.040;2022-08-05T15:03:04;26.10;57.90
71367;DHT22;60030;52.274;8.040;2022-08-05T15:05:32;26.30;56.70
71367;DHT22;60030;52.274;8.040;2022-08-05T15:07:59;26.20;57.70
71367;DHT22;60030;52.274;8.040;2022-08-05T15:10:27;26.40;58.20
71367;DHT22;60030;52.274;8.040;2022-08-05T15:12:54;26.40;56.00
71367;DHT22;60030;52.274;8.040;2022-08-05T15:15:21;26.60;55.50
71367;DHT22;60030;52.274;8.040;2022-08-05T15:17:48;27.50;53.30
71367;DHT22;60030;52.274;8.040;2022-08-05T15:20:17;28.10;51.80
71367;DHT22;60030;52.274;8.040;2022-08-05T15:22:44;28.70;49.00
71367;DHT22;60030;52.274;8.040;2022-08-05T15:25:11;29.00;48.40
71367;DHT22;60030;52.274;8.040;2022-08-05T15:27:38;29.10;47.80
71367;DHT22;60030;52.274;8.040;2022-08-05T15:30:06;28.60;47.30
71367;DHT22;60030;52.274;8.040;2022-08-05T15:32:35;28.40;48.90
71367;DHT22;60030;52.274;8.040;2022-08-05T15:35:02;28.30;49.50
71367;DHT22;60030;52.274;8.040;2022-08-05T15:37:31;27.90;51.00
71367;DHT22;60030;52.274;8.040;2022-08-05T15:39:58;27.60;52.00
71367;DHT22;60030;52.274;8.040;2022-08-05T15:42:25;27.30;53.00
71367;DHT22;60030;52.274;8.040;2022-08-05T15:44:52;27.10;53.10
71367;DHT22;60030;52.274;8.040;2022-08-05T15:47:19;27.10;54.40